Cordele, Georgia
Current Conditions -  °F | °C
As of 2:15 PM on Thursday 30 Oct 2014 (Local Time) from KCKF Reporting Station
Clear Clear  
Wind Chill: 71°   Ceiling: Unl
Heat Index: 71°   Visibility: 10mi
Dew Point: 48°   Wind: 6mph
Humidity: 43%   Direction: 340°NNW
Pressure: 29.99"   Gusts: NA
Location:  31.97°N, 83.78°W
Report Text: KCKF 301815Z AUTO 34005KT 10SM CLR 22/09 A2999 RMK AO2 T02180087
Loading
Personal Weather Stations






























Interactive Weather Map New forecast layout! Learn more

10-Day Weather Forecast

Advertisements
Track Severe Weather on mobile